UAL879 EGLL-EGCC
Flight info
| Callsign | UAL879 |
|---|---|
| Flight time | 0h 28m |
| Altitude | 18000 |
| Route | ULTIB1J ULTIB T420 ELVOS ELVOS1M |
| Aircraft | B772/H-SDE2E3FGHIJ5LORVWXY/LB1D1 |
Departure
| Time | 2026-05-05 12:39 |
|---|---|
| Airport | London Heathrow Airport (EGLL) |
Arrival
| Time | 2026-05-05 13:07 |
|---|---|
| Airport | Manchester Airport (EGCC) |
| Time | Latitude | Longitude | Altitude | Speed | Heading |
|---|---|---|---|---|---|
| 2026-05-05 12:03 | 51.46940 | -0.44198 | 93 ft | 0 kts | 271° |
| 2026-05-05 12:22 | 51.46940 | -0.44181 | 95 ft | 2 kts | 266° |
| 2026-05-05 12:22 | 51.46941 | -0.44155 | 93 ft | 2 kts | 265° |
| 2026-05-05 12:22 | 51.46943 | -0.44129 | 92 ft | 2 kts | 260° |
| 2026-05-05 12:23 | 51.46946 | -0.44103 | 95 ft | 2 kts | 250° |
| 2026-05-05 12:23 | 51.46953 | -0.44079 | 94 ft | 2 kts | 232° |
| 2026-05-05 12:23 | 51.46965 | -0.44062 | 93 ft | 2 kts | 201° |
| 2026-05-05 12:23 | 51.46979 | -0.44056 | 92 ft | 1 kts | 182° |
| 2026-05-05 12:24 | 51.46983 | -0.44056 | 91 ft | 0 kts | 181° |
| 2026-05-05 12:26 | 51.46951 | -0.44056 | 93 ft | 15 kts | 180° |
| 2026-05-05 12:26 | 51.46799 | -0.44056 | 94 ft | 17 kts | 180° |
| 2026-05-05 12:26 | 51.46687 | -0.44072 | 92 ft | 13 kts | 217° |
| 2026-05-05 12:26 | 51.46667 | -0.44212 | 92 ft | 13 kts | 270° |
| 2026-05-05 12:27 | 51.46667 | -0.44277 | 93 ft | 13 kts | 270° |
| 2026-05-05 12:27 | 51.46667 | -0.44279 | 93 ft | 13 kts | 270° |
| 2026-05-05 12:27 | 51.46667 | -0.44428 | 95 ft | 13 kts | 270° |
| 2026-05-05 12:27 | 51.46666 | -0.44586 | 97 ft | 15 kts | 270° |
| 2026-05-05 12:28 | 51.46665 | -0.44750 | 99 ft | 15 kts | 269° |
| 2026-05-05 12:28 | 51.46664 | -0.44915 | 99 ft | 15 kts | 269° |
| 2026-05-05 12:28 | 51.46664 | -0.45079 | 98 ft | 15 kts | 270° |
| 2026-05-05 12:28 | 51.46664 | -0.45243 | 96 ft | 15 kts | 270° |
| 2026-05-05 12:29 | 51.46664 | -0.45411 | 93 ft | 16 kts | 270° |
| 2026-05-05 12:29 | 51.46663 | -0.45588 | 91 ft | 16 kts | 269° |
| 2026-05-05 12:29 | 51.46661 | -0.45765 | 90 ft | 16 kts | 269° |
| 2026-05-05 12:29 | 51.46661 | -0.45943 | 91 ft | 16 kts | 269° |
| 2026-05-05 12:30 | 51.46660 | -0.46121 | 97 ft | 16 kts | 270° |
| 2026-05-05 12:30 | 51.46659 | -0.46298 | 99 ft | 16 kts | 270° |
| 2026-05-05 12:30 | 51.46660 | -0.46475 | 101 ft | 16 kts | 269° |
| 2026-05-05 12:30 | 51.46658 | -0.46653 | 102 ft | 16 kts | 269° |
| 2026-05-05 12:31 | 51.46659 | -0.46830 | 101 ft | 16 kts | 271° |
| 2026-05-05 12:31 | 51.46659 | -0.47008 | 99 ft | 16 kts | 269° |
| 2026-05-05 12:31 | 51.46658 | -0.47171 | 96 ft | 14 kts | 269° |
| 2026-05-05 12:31 | 51.46657 | -0.47318 | 95 ft | 13 kts | 269° |
| 2026-05-05 12:32 | 51.46656 | -0.47460 | 93 ft | 13 kts | 269° |
| 2026-05-05 12:32 | 51.46655 | -0.47602 | 93 ft | 13 kts | 269° |
| 2026-05-05 12:32 | 51.46655 | -0.47744 | 93 ft | 13 kts | 271° |
| 2026-05-05 12:32 | 51.46653 | -0.47886 | 92 ft | 13 kts | 268° |
| 2026-05-05 12:33 | 51.46653 | -0.48028 | 95 ft | 13 kts | 270° |
| 2026-05-05 12:33 | 51.46653 | -0.48170 | 97 ft | 13 kts | 271° |
| 2026-05-05 12:33 | 51.46654 | -0.48312 | 98 ft | 13 kts | 270° |
| 2026-05-05 12:33 | 51.46651 | -0.48453 | 99 ft | 13 kts | 268° |
| 2026-05-05 12:34 | 51.46652 | -0.48595 | 99 ft | 13 kts | 270° |
| 2026-05-05 12:34 | 51.46646 | -0.48717 | 98 ft | 8 kts | 247° |
| 2026-05-05 12:34 | 51.46615 | -0.48756 | 100 ft | 4 kts | 206° |
| 2026-05-05 12:34 | 51.46602 | -0.48764 | 98 ft | 0 kts | 200° |
| 2026-05-05 12:36 | 51.46557 | -0.48785 | 98 ft | 6 kts | 188° |
| 2026-05-05 12:36 | 51.46515 | -0.48773 | 99 ft | 6 kts | 155° |
| 2026-05-05 12:36 | 51.46486 | -0.48724 | 101 ft | 6 kts | 117° |
| 2026-05-05 12:37 | 51.46478 | -0.48656 | 100 ft | 6 kts | 91° |
| 2026-05-05 12:37 | 51.46478 | -0.48640 | 99 ft | 0 kts | 90° |
| 2026-05-05 12:38 | 51.46477 | -0.48600 | 98 ft | 17 kts | 90° |
| 2026-05-05 12:38 | 51.46479 | -0.48160 | 97 ft | 69 kts | 89° |
| 2026-05-05 12:38 | 51.46486 | -0.46910 | 100 ft | 153 kts | 88° |
| 2026-05-05 12:39 | 51.46483 | -0.44992 | 752 ft | 175 kts | 88° |
| 2026-05-05 12:39 | 51.46494 | -0.43074 | 2110 ft | 173 kts | 86° |
| 2026-05-05 12:39 | 51.46668 | -0.41095 | 2559 ft | 193 kts | 63° |
| 2026-05-05 12:39 | 51.47527 | -0.39299 | 2856 ft | 210 kts | 46° |
| 2026-05-05 12:40 | 51.48543 | -0.37413 | 3182 ft | 239 kts | 50° |
| 2026-05-05 12:40 | 51.49620 | -0.35299 | 3835 ft | 249 kts | 50° |
| 2026-05-05 12:40 | 51.50720 | -0.33155 | 4784 ft | 252 kts | 50° |
| 2026-05-05 12:40 | 51.51839 | -0.30979 | 5568 ft | 251 kts | 52° |
| 2026-05-05 12:41 | 51.52704 | -0.28521 | 6004 ft | 259 kts | 68° |
| 2026-05-05 12:41 | 51.53300 | -0.25761 | 5989 ft | 262 kts | 72° |
| 2026-05-05 12:41 | 51.53858 | -0.22963 | 5995 ft | 265 kts | 72° |
| 2026-05-05 12:41 | 51.54467 | -0.20194 | 5985 ft | 259 kts | 62° |
| 2026-05-05 12:42 | 51.55723 | -0.18132 | 6001 ft | 266 kts | 27° |
| 2026-05-05 12:42 | 51.57535 | -0.17624 | 6011 ft | 270 kts | 352° |
| 2026-05-05 12:42 | 51.59212 | -0.18892 | 6048 ft | 270 kts | 320° |
| 2026-05-05 12:42 | 51.60534 | -0.20993 | 6017 ft | 269 kts | 318° |
| 2026-05-05 12:43 | 51.61997 | -0.22901 | 6045 ft | 272 kts | 326° |
| 2026-05-05 12:43 | 51.63521 | -0.24739 | 6582 ft | 276 kts | 323° |
| 2026-05-05 12:43 | 51.65058 | -0.26582 | 7534 ft | 275 kts | 326° |
| 2026-05-05 12:43 | 51.66651 | -0.28310 | 8460 ft | 277 kts | 328° |
| 2026-05-05 12:44 | 51.68285 | -0.29976 | 9341 ft | 281 kts | 328° |
| 2026-05-05 12:44 | 51.74794 | -0.36336 | 12747 ft | 298 kts | 330° |
| 2026-05-05 12:44 | 51.86454 | -0.47561 | 17556 ft | 323 kts | 327° |
| 2026-05-05 12:44 | 51.88374 | -0.49465 | 17633 ft | 323 kts | 328° |
| 2026-05-05 12:45 | 51.94288 | -0.55284 | 17917 ft | 327 kts | 328° |
| 2026-05-05 12:45 | 52.07508 | -0.68184 | 18077 ft | 331 kts | 327° |
| 2026-05-05 12:45 | 52.23377 | -0.83875 | 17987 ft | 330 kts | 327° |
| 2026-05-05 12:45 | 52.38696 | -0.99089 | 17870 ft | 314 kts | 327° |
| 2026-05-05 12:46 | 52.53656 | -1.14100 | 18082 ft | 322 kts | 326° |
| 2026-05-05 12:46 | 52.62674 | -1.23259 | 18153 ft | 332 kts | 326° |
| 2026-05-05 12:46 | 52.64617 | -1.25225 | 18078 ft | 325 kts | 326° |
| 2026-05-05 12:46 | 52.66436 | -1.27070 | 18025 ft | 319 kts | 326° |
| 2026-05-05 12:47 | 52.68313 | -1.28977 | 18022 ft | 317 kts | 326° |
| 2026-05-05 12:47 | 52.70204 | -1.30905 | 18031 ft | 322 kts | 326° |
| 2026-05-05 12:47 | 52.72124 | -1.32858 | 18030 ft | 324 kts | 326° |
| 2026-05-05 12:47 | 52.74039 | -1.34805 | 17992 ft | 323 kts | 326° |
| 2026-05-05 12:48 | 52.75946 | -1.36745 | 18001 ft | 321 kts | 325° |
| 2026-05-05 12:48 | 52.77846 | -1.38681 | 18001 ft | 320 kts | 325° |
| 2026-05-05 12:48 | 52.79741 | -1.40614 | 17990 ft | 319 kts | 325° |
| 2026-05-05 12:48 | 52.81629 | -1.42542 | 17991 ft | 318 kts | 325° |
| 2026-05-05 12:49 | 52.83511 | -1.44467 | 17691 ft | 321 kts | 325° |
| 2026-05-05 12:49 | 52.85433 | -1.46438 | 17164 ft | 328 kts | 325° |
| 2026-05-05 12:49 | 52.87397 | -1.48453 | 16702 ft | 336 kts | 326° |
| 2026-05-05 12:49 | 52.89404 | -1.50516 | 16222 ft | 352 kts | 326° |
| 2026-05-05 12:50 | 52.91537 | -1.52708 | 15706 ft | 359 kts | 326° |
| 2026-05-05 12:50 | 52.93634 | -1.54861 | 15189 ft | 359 kts | 326° |
| 2026-05-05 12:50 | 52.95756 | -1.57042 | 14667 ft | 358 kts | 326° |
| 2026-05-05 12:50 | 52.97874 | -1.59223 | 14127 ft | 358 kts | 326° |
| 2026-05-05 12:51 | 52.99989 | -1.61405 | 13593 ft | 358 kts | 327° |
| 2026-05-05 12:51 | 53.02100 | -1.63584 | 13007 ft | 357 kts | 327° |
| 2026-05-05 12:51 | 53.04206 | -1.65763 | 12459 ft | 356 kts | 327° |
| 2026-05-05 12:51 | 53.06156 | -1.68136 | 11884 ft | 342 kts | 314° |
| 2026-05-05 12:52 | 53.07728 | -1.71085 | 11396 ft | 340 kts | 308° |
| 2026-05-05 12:52 | 53.09209 | -1.74152 | 10860 ft | 338 kts | 308° |
| 2026-05-05 12:52 | 53.10696 | -1.77164 | 10522 ft | 332 kts | 309° |
| 2026-05-05 12:52 | 53.12149 | -1.80048 | 10376 ft | 319 kts | 309° |
| 2026-05-05 12:53 | 53.13565 | -1.82816 | 10217 ft | 308 kts | 309° |
| 2026-05-05 12:53 | 53.14932 | -1.85474 | 10109 ft | 294 kts | 309° |
| 2026-05-05 12:53 | 53.16189 | -1.87919 | 9867 ft | 267 kts | 309° |
| 2026-05-05 12:53 | 53.17356 | -1.90195 | 9527 ft | 250 kts | 309° |
| 2026-05-05 12:54 | 53.19560 | -1.94499 | 8925 ft | 247 kts | 310° |
| 2026-05-05 12:54 | 53.20716 | -1.96757 | 8624 ft | 263 kts | 310° |
| 2026-05-05 12:54 | 53.21918 | -1.99110 | 8264 ft | 268 kts | 310° |
| 2026-05-05 12:55 | 53.22939 | -2.01597 | 8120 ft | 255 kts | 291° |
| 2026-05-05 12:55 | 53.23167 | -2.04455 | 8056 ft | 254 kts | 263° |
| 2026-05-05 12:55 | 53.22551 | -2.07277 | 7809 ft | 261 kts | 242° |
| 2026-05-05 12:55 | 53.21602 | -2.09835 | 7450 ft | 264 kts | 238° |
| 2026-05-05 12:56 | 53.20568 | -2.12429 | 7079 ft | 264 kts | 238° |
| 2026-05-05 12:56 | 53.19694 | -2.15122 | 6713 ft | 264 kts | 246° |
| 2026-05-05 12:56 | 53.18922 | -2.17893 | 6419 ft | 263 kts | 246° |
| 2026-05-05 12:56 | 53.18168 | -2.20667 | 6107 ft | 262 kts | 247° |
| 2026-05-05 12:57 | 53.17412 | -2.23432 | 5803 ft | 261 kts | 246° |
| 2026-05-05 12:57 | 53.16687 | -2.26085 | 5384 ft | 243 kts | 248° |
| 2026-05-05 12:57 | 53.15986 | -2.28573 | 4973 ft | 233 kts | 248° |
| 2026-05-05 12:57 | 53.15292 | -2.30994 | 4593 ft | 232 kts | 248° |
| 2026-05-05 12:58 | 53.14578 | -2.33426 | 4290 ft | 235 kts | 247° |
| 2026-05-05 12:58 | 53.13856 | -2.35885 | 3970 ft | 236 kts | 246° |
| 2026-05-05 12:58 | 53.13154 | -2.38312 | 3666 ft | 228 kts | 248° |
| 2026-05-05 12:58 | 53.12481 | -2.40616 | 3358 ft | 220 kts | 248° |
| 2026-05-05 12:59 | 53.11845 | -2.42912 | 3082 ft | 209 kts | 256° |
| 2026-05-05 12:59 | 53.11828 | -2.45188 | 3014 ft | 198 kts | 290° |
| 2026-05-05 12:59 | 53.12389 | -2.47291 | 3018 ft | 200 kts | 298° |
| 2026-05-05 13:00 | 53.13613 | -2.51473 | 3005 ft | 199 kts | 299° |
| 2026-05-05 13:00 | 53.14378 | -2.53339 | 3004 ft | 194 kts | 312° |
| 2026-05-05 13:01 | 53.17263 | -2.57077 | 2982 ft | 167 kts | 357° |
| 2026-05-05 13:01 | 53.18428 | -2.56774 | 3014 ft | 176 kts | 13° |
| 2026-05-05 13:01 | 53.19606 | -2.56123 | 3011 ft | 180 kts | 15° |
| 2026-05-05 13:01 | 53.20774 | -2.55443 | 3011 ft | 175 kts | 19° |
| 2026-05-05 13:02 | 53.21774 | -2.54279 | 3024 ft | 181 kts | 45° |
| 2026-05-05 13:02 | 53.22636 | -2.52696 | 3002 ft | 185 kts | 45° |
| 2026-05-05 13:02 | 53.23468 | -2.51087 | 2997 ft | 180 kts | 46° |
| 2026-05-05 13:02 | 53.24265 | -2.49475 | 2993 ft | 180 kts | 49° |
| 2026-05-05 13:03 | 53.25072 | -2.47819 | 2813 ft | 187 kts | 48° |
| 2026-05-05 13:03 | 53.25895 | -2.46126 | 2552 ft | 188 kts | 49° |
| 2026-05-05 13:03 | 53.26683 | -2.44494 | 2267 ft | 171 kts | 48° |
| 2026-05-05 13:03 | 53.27389 | -2.43040 | 2049 ft | 151 kts | 48° |
| 2026-05-05 13:04 | 53.28003 | -2.41775 | 1891 ft | 134 kts | 46° |
| 2026-05-05 13:04 | 53.28582 | -2.40581 | 1725 ft | 130 kts | 45° |
| 2026-05-05 13:04 | 53.29157 | -2.39395 | 1525 ft | 134 kts | 45° |
| 2026-05-05 13:04 | 53.29746 | -2.38184 | 1313 ft | 134 kts | 48° |
| 2026-05-05 13:05 | 53.30329 | -2.36979 | 1135 ft | 134 kts | 47° |
| 2026-05-05 13:05 | 53.30911 | -2.35779 | 954 ft | 133 kts | 45° |
| 2026-05-05 13:05 | 53.31495 | -2.34572 | 745 ft | 131 kts | 47° |
| 2026-05-05 13:05 | 53.32061 | -2.33386 | 601 ft | 130 kts | 49° |
| 2026-05-05 13:06 | 53.32646 | -2.32210 | 457 ft | 133 kts | 48° |
| 2026-05-05 13:06 | 53.33223 | -2.31000 | 265 ft | 133 kts | 48° |
| 2026-05-05 13:06 | 53.33772 | -2.29889 | 242 ft | 107 kts | 52° |
| 2026-05-05 13:06 | 53.34060 | -2.29289 | 251 ft | 50 kts | 51° |
| 2026-05-05 13:07 | 53.34261 | -2.28871 | 255 ft | 43 kts | 51° |
| 2026-05-05 13:07 | 53.34466 | -2.28565 | 260 ft | 34 kts | 23° |
| 2026-05-05 13:07 | 53.34627 | -2.28456 | 264 ft | 23 kts | 21° |
| 2026-05-05 13:07 | 53.34753 | -2.28323 | 265 ft | 22 kts | 48° |
| 2026-05-05 13:08 | 53.34823 | -2.28173 | 265 ft | 9 kts | 51° |
| 2026-05-05 13:08 | 53.34862 | -2.28091 | 264 ft | 9 kts | 51° |
| 2026-05-05 13:08 | 53.34907 | -2.28000 | 264 ft | 11 kts | 43° |
| 2026-05-05 13:08 | 53.34983 | -2.28001 | 261 ft | 14 kts | 327° |
| 2026-05-05 13:09 | 53.35062 | -2.28106 | 260 ft | 15 kts | 321° |
| 2026-05-05 13:09 | 53.35154 | -2.28200 | 259 ft | 17 kts | 348° |
| 2026-05-05 13:09 | 53.35280 | -2.28184 | 258 ft | 18 kts | 6° |
| 2026-05-05 13:09 | 53.35406 | -2.28163 | 258 ft | 18 kts | 7° |
| 2026-05-05 13:10 | 53.35526 | -2.28093 | 257 ft | 18 kts | 38° |
| 2026-05-05 13:10 | 53.35611 | -2.27932 | 256 ft | 18 kts | 45° |
| 2026-05-05 13:10 | 53.35733 | -2.27878 | 255 ft | 18 kts | 6° |
| 2026-05-05 13:10 | 53.35861 | -2.27857 | 254 ft | 18 kts | 6° |
| 2026-05-05 13:11 | 53.35989 | -2.27835 | 254 ft | 18 kts | 3° |
| 2026-05-05 13:11 | 53.36103 | -2.27911 | 254 ft | 18 kts | 315° |
| 2026-05-05 13:11 | 53.36194 | -2.28062 | 255 ft | 18 kts | 316° |
| 2026-05-05 13:11 | 53.36284 | -2.28215 | 256 ft | 18 kts | 313° |
| 2026-05-05 13:12 | 53.36375 | -2.28368 | 256 ft | 18 kts | 315° |
| 2026-05-05 13:12 | 53.36459 | -2.28509 | 257 ft | 17 kts | 313° |
| 2026-05-05 13:12 | 53.36540 | -2.28649 | 258 ft | 17 kts | 317° |
| 2026-05-05 13:12 | 53.36611 | -2.28774 | 258 ft | 14 kts | 356° |
| 2026-05-05 13:13 | 53.36675 | -2.28706 | 257 ft | 8 kts | 35° |
| 2026-05-05 13:13 | 53.36722 | -2.28704 | 257 ft | 6 kts | 327° |
| 2026-05-05 13:13 | 53.36742 | -2.28735 | 257 ft | 3 kts | 315° |
| 2026-05-05 13:13 | 53.36758 | -2.28760 | 257 ft | 2 kts | 315° |
| 2026-05-05 13:14 | 53.36764 | -2.28771 | 257 ft | 0 kts | 315° |
| 2026-05-05 13:17 | 53.36759 | -2.28762 | 257 ft | 0 kts | 315° |
| 2026-05-05 13:17 | 53.36766 | -2.28750 | 257 ft | 0 kts | 315° |
| 2026-05-05 13:25 | 53.32463 | -2.32572 | 501 ft | 136 kts | 46° |
| 2026-05-05 13:26 | 53.33098 | -2.31259 | 302 ft | 133 kts | 47° |
| 2026-05-05 13:26 | 53.33765 | -2.29904 | 242 ft | 108 kts | 52° |
| 2026-05-05 13:26 | 53.33159 | -2.31132 | 285 ft | 133 kts | 48° |
| 2026-05-05 13:26 | 53.33800 | -2.29829 | 242 ft | 104 kts | 51° |
| 2026-05-05 13:27 | 53.33029 | -2.31406 | 316 ft | 133 kts | 48° |
| 2026-05-05 13:27 | 53.33693 | -2.30054 | 241 ft | 115 kts | 50° |
| 2026-05-05 13:27 | 53.33171 | -2.31106 | 278 ft | 133 kts | 48° |